プーケット の空港の天気 - METARとTAF

プーケット国際空港 ( VTSP / HKT ) - タイ プーケット県
飛行場実況気象(Metar)
観測時間03/26 13:30 +07 (03/26 06:30 UTC)
風向・風速東 5m/s
視程8000m
天気現象
-
気温32℃
湿度59%
気圧1010hPa
METARVTSP 260630Z 08010KT 8000 FEWE020 32/23 Q1010 NOSIG
過去の天気等 Google飛行場航空写真 Wunderground天気予報

過去48時間のMETAR

飛行場予報(TAF)
発表時間: 3/26 12:00 +07 (3/26 05:00 UTC)
予報対象時間: 26日13時 +07 ~ 27日19時 +07
風向・風速西北西 4m/s
視程9,000m
少しの雲 雲底高度 610m
26日17時 +07 ~ 26日21時 +07 に 確率 30% で一時的に
風向・風速不定 5m/s 瞬間風速 13m/s
視程3,000m
天気現象雷雨
少しの積乱雲 雲底高度 490m
全天の4割程度の雲 雲底高度 610m
全天の8割程度の雲 雲底高度 3,050m
26日21時 +07 ~ 26日23時 +07 に徐々に
風向・風速静穏
27日7時 +07 ~ 27日9時 +07 に徐々に
風向・風速東北東 5m/s
TAF VTSP 260500Z 2606/2712 30008KT 9000 FEW020
PROB30 TEMPO 2610/2614 VRB10G25KT 3000 TSRA FEW016CB SCT020 BKN100
BECMG 2614/2616 00000KT
BECMG 2700/2702 06010KT